Terminal Aerodrome Forecast
Issued by NWS

Home | Current Version | Previous Version | Text Only | Print | Product List | Glossary On
Versions: 1 2 3 4 5 6 7 8 9 10 11 12 13 14 15 16
858
FTUS45 KVEF 300520
TAFBIH
TAF
KBIH 300520Z 3006/0106 35015G25KT P6SM SCT060 OVC120
     FM300900 35015G25KT P6SM VCSH BKN060 OVC100
      TEMPO 3009/3013 -SHRA SCT040 OVC060
     FM301300 36025G35KT P6SM VCSH BKN060 BKN100
     FM302200 36020G30KT P6SM BKN060=

USA.gov is the U.S. government's official web portal to all federal, state and local government web resources and services.